createdAt,value
2019-01-08T00:02:04.807Z,3.90
2019-01-08T00:04:33.966Z,4.17
2019-01-08T00:07:03.094Z,4.10
2019-01-08T00:09:32.250Z,4.60
2019-01-08T00:12:02.156Z,4.33
2019-01-08T00:14:31.276Z,3.77
2019-01-08T00:17:00.445Z,3.60
2019-01-08T00:19:29.972Z,3.40
2019-01-08T00:21:59.100Z,3.93
2019-01-08T00:24:28.233Z,4.20
2019-01-08T00:26:58.775Z,4.20
2019-01-08T00:29:27.909Z,4.10
2019-01-08T00:31:57.059Z,3.50
2019-01-08T00:34:26.227Z,3.93
2019-01-08T00:36:55.356Z,3.97
2019-01-08T00:39:24.485Z,3.50
2019-01-08T00:41:53.865Z,4.30
2019-01-08T00:44:23.216Z,4.20
2019-01-08T00:46:52.354Z,3.83
2019-01-08T00:49:21.557Z,3.77
2019-01-08T00:51:51.062Z,3.97
2019-01-08T00:54:20.193Z,4.00
2019-01-08T00:56:49.332Z,4.33
2019-01-08T00:59:18.864Z,3.60
2019-01-08T01:01:48.020Z,4.60
2019-01-08T01:04:17.228Z,3.60
2019-01-08T01:06:46.371Z,3.80
2019-01-08T01:09:15.550Z,4.03
2019-01-08T01:11:44.691Z,4.17
2019-01-08T01:14:13.883Z,4.50
2019-01-08T01:16:43.038Z,4.40
2019-01-08T01:19:12.283Z,3.93
2019-01-08T01:21:41.451Z,5.37
2019-01-08T01:24:10.638Z,4.83
2019-01-08T01:26:39.874Z,4.50
2019-01-08T01:29:09.534Z,3.77
2019-01-08T01:31:38.712Z,3.63
2019-01-08T01:34:07.858Z,4.30
2019-01-08T01:36:36.979Z,3.13
2019-01-08T01:39:07.224Z,4.17
2019-01-08T01:41:36.350Z,4.13
2019-01-08T01:44:05.482Z,4.60
2019-01-08T01:46:34.642Z,5.07
2019-01-08T01:49:03.792Z,4.33
2019-01-08T01:51:33.106Z,4.90
2019-01-08T01:54:02.227Z,4.67
2019-01-08T01:56:31.560Z,4.13
2019-01-08T01:59:08.138Z,3.80
2019-01-08T02:01:31.687Z,5.40
2019-01-08T02:04:00.924Z,4.43
2019-01-08T02:06:30.354Z,4.73
2019-01-08T02:08:59.482Z,3.83
2019-01-08T02:11:28.610Z,4.13
2019-01-08T02:13:57.979Z,3.93
2019-01-08T02:16:27.119Z,4.07
2019-01-08T02:18:56.241Z,5.17
2019-01-08T02:21:25.394Z,4.00
2019-01-08T02:23:54.552Z,4.77
2019-01-08T02:26:23.669Z,4.83
2019-01-08T02:28:52.795Z,4.67
2019-01-08T02:31:21.970Z,4.20
2019-01-08T02:33:51.087Z,4.70
2019-01-08T02:36:20.319Z,3.10
2019-01-08T02:38:49.896Z,4.40
2019-01-08T02:41:19.200Z,3.80
2019-01-08T02:43:48.494Z,4.57
2019-01-08T02:46:17.896Z,3.90
2019-01-08T02:48:47.203Z,4.63
2019-01-08T02:51:16.376Z,4.97
2019-01-08T02:53:45.520Z,5.17
2019-01-08T02:56:14.708Z,4.20
2019-01-08T02:58:43.914Z,4.67
2019-01-08T03:01:13.046Z,5.00
2019-01-08T03:03:42.316Z,5.40
2019-01-08T03:06:11.480Z,3.90
2019-01-08T03:08:40.644Z,5.60
2019-01-08T03:11:09.771Z,5.10
2019-01-08T03:13:39.000Z,3.70
2019-01-08T03:16:08.276Z,4.37
2019-01-08T03:18:37.432Z,4.97
2019-01-08T03:21:06.567Z,4.67
2019-01-08T03:23:35.723Z,4.03
2019-01-08T03:26:04.898Z,5.30
2019-01-08T03:28:34.270Z,5.30
2019-01-08T03:31:03.867Z,2.73
2019-01-08T03:33:33.026Z,2.33
2019-01-08T03:36:02.189Z,1.40
2019-01-08T03:38:31.573Z,3.03
2019-01-08T03:41:00.710Z,3.03
2019-01-08T03:43:29.830Z,3.67
2019-01-08T03:45:59.002Z,3.10
2019-01-08T03:48:28.139Z,3.43
2019-01-08T03:50:57.272Z,2.57
2019-01-08T03:53:26.535Z,2.90
2019-01-08T03:55:55.660Z,2.60
2019-01-08T03:58:24.797Z,3.20
2019-01-08T04:00:53.990Z,3.30
2019-01-08T04:03:23.124Z,4.60
2019-01-08T04:05:52.547Z,4.43
2019-01-08T04:08:21.681Z,3.53
2019-01-08T04:10:50.826Z,4.83
2019-01-08T04:13:19.990Z,4.47
2019-01-08T04:15:49.116Z,4.57
2019-01-08T04:18:18.289Z,4.40
2019-01-08T04:20:47.437Z,4.90
2019-01-08T04:23:16.622Z,3.57
2019-01-08T04:25:45.784Z,3.93
2019-01-08T04:28:15.039Z,2.97
2019-01-08T04:30:44.360Z,3.80
2019-01-08T04:33:13.496Z,2.70
2019-01-08T04:35:42.838Z,3.03
2019-01-08T04:38:12.014Z,3.83
2019-01-08T04:40:41.167Z,2.93
2019-01-08T04:43:10.305Z,3.40
2019-01-08T04:45:39.895Z,2.97
2019-01-08T04:48:09.040Z,2.80
2019-01-08T04:50:38.176Z,2.57
2019-01-08T04:53:07.573Z,2.50
2019-01-08T04:55:36.722Z,2.53
2019-01-08T04:58:05.890Z,2.47
2019-01-08T05:00:35.035Z,2.70
2019-01-08T05:03:04.172Z,3.13
2019-01-08T05:05:33.446Z,3.13
2019-01-08T05:08:02.606Z,3.90
2019-01-08T05:10:31.787Z,4.20
2019-01-08T05:13:00.940Z,3.23
2019-01-08T05:15:30.087Z,3.90
2019-01-08T05:17:59.288Z,3.40
2019-01-08T05:20:28.669Z,4.37
2019-01-08T05:22:58.160Z,3.20
2019-01-08T05:25:27.283Z,3.70
2019-01-08T05:27:56.422Z,3.37
2019-01-08T05:30:25.673Z,3.07
2019-01-08T05:32:54.924Z,3.70
2019-01-08T05:35:24.102Z,3.80
2019-01-08T05:37:53.237Z,3.03
2019-01-08T05:40:22.581Z,3.30
2019-01-08T05:42:51.801Z,3.20
2019-01-08T05:45:20.964Z,3.70
2019-01-08T05:47:50.094Z,3.50
2019-01-08T05:50:19.286Z,4.13
2019-01-08T05:52:48.728Z,3.90
2019-01-08T05:55:18.331Z,4.10
2019-01-08T05:57:47.532Z,3.17
2019-01-08T06:00:17.070Z,3.87
2019-01-08T06:02:46.197Z,4.30
2019-01-08T06:05:15.901Z,3.57
2019-01-08T06:07:45.083Z,3.50
2019-01-08T06:10:14.264Z,4.10
2019-01-08T06:12:43.552Z,4.70
2019-01-08T06:15:12.699Z,3.63
2019-01-08T06:17:42.254Z,3.57
2019-01-08T06:20:11.507Z,4.30
2019-01-08T06:22:40.627Z,4.23
2019-01-08T06:25:10.006Z,3.67
2019-01-08T06:27:39.093Z,3.87
2019-01-08T06:30:08.685Z,4.37
2019-01-08T06:32:37.833Z,3.87
2019-01-08T06:35:07.408Z,4.83
2019-01-08T06:37:36.583Z,4.47
2019-01-08T06:40:05.999Z,4.33
2019-01-08T06:42:35.174Z,4.10
2019-01-08T06:45:04.316Z,4.17
2019-01-08T06:47:33.511Z,4.33
2019-01-08T06:50:02.704Z,4.67
2019-01-08T06:52:33.832Z,4.07
2019-01-08T06:55:03.048Z,4.57
2019-01-08T06:57:32.324Z,5.37
2019-01-08T07:00:02.583Z,4.90
2019-01-08T07:02:31.909Z,4.10
2019-01-08T07:05:01.240Z,4.40
2019-01-08T07:07:30.410Z,3.80
2019-01-08T07:09:59.642Z,4.57
2019-01-08T07:12:28.787Z,4.63
2019-01-08T07:14:57.956Z,5.03
2019-01-08T07:17:27.093Z,4.23
2019-01-08T07:19:56.271Z,4.83
2019-01-08T07:22:25.440Z,5.07
2019-01-08T07:24:54.579Z,4.00
2019-01-08T07:27:23.794Z,5.03
2019-01-08T07:29:52.971Z,4.30
2019-01-08T07:32:22.148Z,5.33
2019-01-08T07:34:51.349Z,5.17
2019-01-08T07:37:20.587Z,5.37
2019-01-08T07:39:49.948Z,4.43
2019-01-08T07:42:19.186Z,5.10
2019-01-08T07:44:48.307Z,5.63
2019-01-08T07:47:17.487Z,4.93
2019-01-08T07:49:46.627Z,4.00
2019-01-08T07:52:15.788Z,5.27
2019-01-08T07:54:45.170Z,4.93
2019-01-08T07:57:14.345Z,3.80
2019-01-08T07:59:43.582Z,5.03
2019-01-08T08:02:12.934Z,4.77
2019-01-08T08:04:47.472Z,4.60
2019-01-08T08:07:13.010Z,5.97
2019-01-08T08:09:42.267Z,5.23
2019-01-08T08:12:11.510Z,5.10
2019-01-08T08:14:40.644Z,5.07
2019-01-08T08:17:09.918Z,5.30
2019-01-08T08:19:39.130Z,5.07
2019-01-08T08:22:08.352Z,5.03
2019-01-08T08:24:37.837Z,4.43
2019-01-08T08:27:07.020Z,5.23
2019-01-08T08:29:36.149Z,5.53
2019-01-08T08:32:05.260Z,4.17
2019-01-08T08:34:34.412Z,4.87
2019-01-08T08:37:03.556Z,4.33
2019-01-08T08:39:32.755Z,4.73
2019-01-08T08:42:01.887Z,5.70
2019-01-08T08:44:31.349Z,5.10
2019-01-08T08:47:00.472Z,5.80
2019-01-08T08:49:29.632Z,3.53
2019-01-08T08:51:58.805Z,5.53
2019-01-08T08:54:27.978Z,4.73
2019-01-08T08:56:57.184Z,4.50
2019-01-08T08:59:26.498Z,4.53
2019-01-08T09:01:55.659Z,4.90
2019-01-08T09:04:24.845Z,4.97
2019-01-08T09:06:54.060Z,5.57
2019-01-08T09:09:23.186Z,4.87
2019-01-08T09:11:52.360Z,4.80
2019-01-08T09:14:21.482Z,5.60
2019-01-08T09:16:50.669Z,5.70
2019-01-08T09:19:19.991Z,4.70
2019-01-08T09:21:49.151Z,6.60
2019-01-08T09:24:18.314Z,6.30
2019-01-08T09:26:47.475Z,6.33
2019-01-08T09:29:16.660Z,6.37
2019-01-08T09:31:45.837Z,6.03
2019-01-08T09:34:14.962Z,4.83
2019-01-08T09:36:45.431Z,6.07
2019-01-08T09:39:14.863Z,6.63
2019-01-08T09:41:43.998Z,6.77
2019-01-08T09:44:13.239Z,5.77
2019-01-08T09:46:42.413Z,5.00
2019-01-08T09:49:11.669Z,4.93
2019-01-08T09:51:40.826Z,5.60
2019-01-08T09:54:09.997Z,6.00
2019-01-08T09:56:39.229Z,5.73
2019-01-08T09:59:08.457Z,4.83
2019-01-08T10:01:37.710Z,5.53
2019-01-08T10:04:06.936Z,4.47
2019-01-08T10:06:36.132Z,5.63
2019-01-08T10:09:06.626Z,6.33
2019-01-08T10:11:35.789Z,5.30
2019-01-08T10:14:06.193Z,5.17
2019-01-08T10:16:35.297Z,4.90
2019-01-08T10:19:04.450Z,5.57
2019-01-08T10:21:33.661Z,5.33
2019-01-08T10:24:02.837Z,6.33
2019-01-08T10:26:31.960Z,5.57
2019-01-08T10:29:02.091Z,5.00
2019-01-08T10:31:32.619Z,4.47
2019-01-08T10:34:02.039Z,4.53
2019-01-08T10:36:31.235Z,5.07
2019-01-08T10:39:00.438Z,4.83
2019-01-08T10:41:29.599Z,4.60
2019-01-08T10:44:00.838Z,6.17
2019-01-08T10:46:37.223Z,5.00
2019-01-08T10:49:00.530Z,5.63
2019-01-08T10:51:29.672Z,6.77
2019-01-08T10:53:58.898Z,5.50
2019-01-08T10:56:28.066Z,5.23
2019-01-08T10:58:57.278Z,5.00
2019-01-08T11:01:26.505Z,5.27
2019-01-08T11:03:55.648Z,9.80
2019-01-08T11:06:24.809Z,8.60
2019-01-08T11:08:53.985Z,5.73
2019-01-08T11:11:23.527Z,5.13
2019-01-08T11:13:52.677Z,5.30
2019-01-08T11:16:21.852Z,5.00
2019-01-08T11:18:50.971Z,4.77
2019-01-08T11:21:20.161Z,5.77
2019-01-08T11:23:49.310Z,4.60
2019-01-08T11:26:18.469Z,5.53
2019-01-08T11:28:47.755Z,4.97
2019-01-08T11:31:16.920Z,5.43
2019-01-08T11:33:46.097Z,6.27
2019-01-08T11:36:15.226Z,5.57
2019-01-08T11:38:44.413Z,5.47
2019-01-08T11:41:13.554Z,6.03
2019-01-08T11:43:42.713Z,5.47
2019-01-08T11:46:11.887Z,5.30
2019-01-08T11:48:41.025Z,5.67
2019-01-08T11:51:10.259Z,4.87
2019-01-08T11:53:39.542Z,6.30
2019-01-08T11:56:08.705Z,4.67
2019-01-08T11:58:37.877Z,4.37
2019-01-08T12:01:07.050Z,4.30
2019-01-08T12:03:36.218Z,4.80
2019-01-08T12:06:05.399Z,4.83
2019-01-08T12:08:34.593Z,4.43
2019-01-08T12:11:03.730Z,4.37
2019-01-08T12:13:32.900Z,5.47
2019-01-08T12:16:02.580Z,5.77
2019-01-08T12:18:31.711Z,6.10
2019-01-08T12:21:02.175Z,5.90
2019-01-08T12:23:31.347Z,5.33
2019-01-08T12:26:00.510Z,4.50
2019-01-08T12:28:29.788Z,2.90
2019-01-08T12:30:59.142Z,4.33
2019-01-08T12:33:28.329Z,3.73
2019-01-08T12:35:57.587Z,3.87
2019-01-08T12:38:26.754Z,2.83
2019-01-08T12:40:55.989Z,3.53
2019-01-08T12:43:25.178Z,3.23
2019-01-08T12:45:54.414Z,3.30
2019-01-08T12:48:23.547Z,3.10
2019-01-08T12:50:52.728Z,3.43
2019-01-08T12:53:21.874Z,2.97
2019-01-08T12:55:51.128Z,3.77
2019-01-08T12:58:20.340Z,3.40
2019-01-08T13:00:49.603Z,4.53
2019-01-08T13:03:18.739Z,5.13
2019-01-08T13:05:47.896Z,3.70
2019-01-08T13:08:17.096Z,3.50
2019-01-08T13:10:46.246Z,3.40
2019-01-08T13:13:15.634Z,3.53
2019-01-08T13:15:44.834Z,3.60
2019-01-08T13:18:15.038Z,4.30
2019-01-08T13:20:44.384Z,3.03
2019-01-08T13:23:13.556Z,3.73
2019-01-08T13:25:42.722Z,3.77
2019-01-08T13:28:11.844Z,4.43
2019-01-08T13:30:41.078Z,3.97
2019-01-08T13:33:10.260Z,4.97
2019-01-08T13:35:39.448Z,3.83
2019-01-08T13:38:08.626Z,4.20
2019-01-08T13:40:38.119Z,4.33
2019-01-08T13:43:07.382Z,4.17
2019-01-08T13:45:36.535Z,2.77
2019-01-08T13:48:06.057Z,2.93
2019-01-08T13:50:35.189Z,3.13
2019-01-08T13:53:04.310Z,3.07
2019-01-08T13:55:33.477Z,3.63
2019-01-08T13:58:02.595Z,4.17
2019-01-08T14:00:31.810Z,3.73
2019-01-08T14:03:03.182Z,3.77
2019-01-08T14:05:32.420Z,4.17
2019-01-08T14:08:01.606Z,5.37
2019-01-08T14:10:30.805Z,4.07
2019-01-08T14:12:59.944Z,4.37
2019-01-08T14:15:29.181Z,4.43
2019-01-08T14:17:58.778Z,4.57
2019-01-08T14:20:28.036Z,4.10
2019-01-08T14:22:57.322Z,4.43
2019-01-08T14:25:26.489Z,4.10
2019-01-08T14:27:55.717Z,5.07
2019-01-08T14:30:24.878Z,4.90
2019-01-08T14:32:54.115Z,4.47
2019-01-08T14:35:23.283Z,5.10
2019-01-08T14:37:52.541Z,5.13
2019-01-08T14:40:22.073Z,5.50
2019-01-08T14:42:51.207Z,5.70
2019-01-08T14:45:20.336Z,4.57
2019-01-08T14:47:49.696Z,4.63
2019-01-08T14:50:18.955Z,5.00
2019-01-08T14:52:48.091Z,4.87
2019-01-08T14:55:17.269Z,4.87
2019-01-08T14:57:46.420Z,4.27
2019-01-08T15:00:15.705Z,5.57
2019-01-08T15:02:49.426Z,4.77
2019-01-08T15:05:15.849Z,4.87
2019-01-08T15:07:45.021Z,5.37
2019-01-08T15:10:14.389Z,4.33
2019-01-08T15:12:43.614Z,4.70
2019-01-08T15:15:13.006Z,5.10
2019-01-08T15:17:42.178Z,5.03
2019-01-08T15:20:11.391Z,4.57
2019-01-08T15:22:40.767Z,4.20
2019-01-08T15:25:09.966Z,4.43
2019-01-08T15:27:39.136Z,3.97
2019-01-08T15:30:10.051Z,3.67
2019-01-08T15:32:39.195Z,3.13
2019-01-08T15:35:08.332Z,3.50
2019-01-08T15:37:37.524Z,3.60
2019-01-08T15:40:07.078Z,3.80
2019-01-08T15:42:36.197Z,4.40
2019-01-08T15:45:05.383Z,4.70
2019-01-08T15:47:34.578Z,5.20
2019-01-08T15:50:03.744Z,4.53
2019-01-08T15:52:32.919Z,5.10
2019-01-08T15:55:02.046Z,4.97
2019-01-08T15:57:31.218Z,5.07
2019-01-08T16:00:00.357Z,4.90
2019-01-08T16:02:29.573Z,4.60
2019-01-08T16:04:58.844Z,5.70
2019-01-08T16:07:28.007Z,4.93
2019-01-08T16:09:57.196Z,4.40
2019-01-08T16:12:26.329Z,4.63
2019-01-08T16:14:55.620Z,6.40
2019-01-08T16:17:24.772Z,3.37
2019-01-08T16:19:53.917Z,3.00
2019-01-08T16:22:23.101Z,2.97
2019-01-08T16:24:52.401Z,3.10
2019-01-08T16:27:21.562Z,3.13
2019-01-08T16:29:50.837Z,3.60
2019-01-08T16:32:20.031Z,3.20
2019-01-08T16:34:49.226Z,4.40
2019-01-08T16:37:18.406Z,5.30
2019-01-08T16:39:50.597Z,4.87
2019-01-08T16:42:19.866Z,5.13
2019-01-08T16:44:49.011Z,4.50
2019-01-08T16:47:18.259Z,4.50
2019-01-08T16:49:47.453Z,4.27
2019-01-08T16:52:16.667Z,3.73
2019-01-08T16:54:45.829Z,3.93
2019-01-08T16:57:15.028Z,3.77
2019-01-08T16:59:44.495Z,3.73
2019-01-08T17:02:13.800Z,4.07
2019-01-08T17:04:42.932Z,4.40
2019-01-08T17:07:12.058Z,4.17
2019-01-08T17:09:41.340Z,4.13
2019-01-08T17:12:10.623Z,4.47
2019-01-08T17:14:39.758Z,4.37
2019-01-08T17:17:09.042Z,4.57
2019-01-08T17:19:38.215Z,4.47
2019-01-08T17:22:07.365Z,4.60
2019-01-08T17:24:36.544Z,3.83
2019-01-08T17:27:05.958Z,4.03
2019-01-08T17:29:35.096Z,5.37
2019-01-08T17:32:04.231Z,4.50
2019-01-08T17:34:33.469Z,4.43
2019-01-08T17:37:02.573Z,4.07
2019-01-08T17:39:31.763Z,4.60
2019-01-08T17:42:00.907Z,4.83
2019-01-08T17:44:30.425Z,4.50
2019-01-08T17:46:59.658Z,4.27
2019-01-08T17:49:28.849Z,4.30
2019-01-08T17:51:58.447Z,4.47
2019-01-08T17:54:27.792Z,4.83
2019-01-08T17:56:56.958Z,5.20
2019-01-08T17:59:26.136Z,4.00
2019-01-08T18:01:57.473Z,4.63
2019-01-08T18:04:26.831Z,6.37
2019-01-08T18:06:55.998Z,4.70
2019-01-08T18:09:25.186Z,4.53
2019-01-08T18:11:54.360Z,4.17
2019-01-08T18:14:23.597Z,5.43
2019-01-08T18:16:52.774Z,4.83
2019-01-08T18:19:22.031Z,5.13
2019-01-08T18:21:51.196Z,4.13
2019-01-08T18:24:20.401Z,4.63
2019-01-08T18:26:49.721Z,4.63
2019-01-08T18:29:18.874Z,4.37
2019-01-08T18:31:48.135Z,4.77
2019-01-08T18:34:17.313Z,4.90
2019-01-08T18:36:46.590Z,4.27
2019-01-08T18:39:15.780Z,4.40
2019-01-08T18:41:44.923Z,4.67
2019-01-08T18:44:14.232Z,4.20
2019-01-08T18:46:43.529Z,4.60
2019-01-08T18:49:12.751Z,4.23
2019-01-08T18:51:41.921Z,4.23
2019-01-08T18:54:11.104Z,4.57
2019-01-08T18:56:40.434Z,3.87
2019-01-08T18:59:09.723Z,3.87
2019-01-08T19:01:39.921Z,3.07
2019-01-08T19:04:09.338Z,4.27
2019-01-08T19:06:38.639Z,3.53
2019-01-08T19:09:36.859Z,3.60
2019-01-08T19:12:08.318Z,3.63
2019-01-08T19:14:42.089Z,3.50
2019-01-08T19:17:11.283Z,3.80
2019-01-08T19:19:41.511Z,3.43
2019-01-08T19:22:10.759Z,4.33
2019-01-08T19:24:41.751Z,3.30
2019-01-08T19:27:11.027Z,3.63
2019-01-08T19:29:40.885Z,3.00
2019-01-08T19:32:10.090Z,4.77
2019-01-08T19:34:39.270Z,3.77
2019-01-08T19:37:08.504Z,5.20
2019-01-08T19:39:37.915Z,3.53
2019-01-08T19:42:07.368Z,4.23
2019-01-08T19:44:37.806Z,3.93
2019-01-08T19:47:07.143Z,4.37
2019-01-08T19:49:36.355Z,4.53
2019-01-08T19:52:06.085Z,3.77
2019-01-08T19:54:35.335Z,2.83
2019-01-08T19:57:06.092Z,2.93
2019-01-08T19:59:36.455Z,2.50
2019-01-08T20:02:05.776Z,2.83
2019-01-08T20:04:35.618Z,3.23
2019-01-08T20:07:05.249Z,2.90
2019-01-08T20:09:34.452Z,2.80
2019-01-08T20:12:03.864Z,2.57
2019-01-08T20:14:34.483Z,2.70
2019-01-08T20:17:03.788Z,2.30
2019-01-08T20:19:33.102Z,2.70
2019-01-08T20:22:02.756Z,3.17
2019-01-08T20:24:34.249Z,2.80
2019-01-08T20:27:03.564Z,3.73
2019-01-08T20:29:32.844Z,3.80
2019-01-08T20:32:04.340Z,3.13
2019-01-08T20:34:34.874Z,3.13
2019-01-08T20:37:04.177Z,3.80
2019-01-08T20:39:33.405Z,5.00
2019-01-08T20:42:03.542Z,3.80
2019-01-08T20:44:32.969Z,4.50
2019-01-08T20:47:02.219Z,4.00
2019-01-08T20:49:31.972Z,3.73
2019-01-08T20:52:01.246Z,4.67
2019-01-08T20:54:30.494Z,5.13
2019-01-08T20:57:08.560Z,4.53
2019-01-08T20:59:30.627Z,3.60
2019-01-08T21:02:01.029Z,3.57
2019-01-08T21:04:35.274Z,3.50
2019-01-08T21:07:01.179Z,2.90
2019-01-08T21:09:30.504Z,3.83
2019-01-08T21:12:00.885Z,3.70
2019-01-08T21:14:30.081Z,3.77
2019-01-08T21:16:59.374Z,3.87
2019-01-08T21:19:28.603Z,4.17
2019-01-08T21:21:58.217Z,3.93
2019-01-08T21:24:28.863Z,3.77
2019-01-08T21:26:58.165Z,3.87
2019-01-08T21:29:27.609Z,3.27
2019-01-08T21:31:58.666Z,3.30
2019-01-08T21:34:27.855Z,3.30
2019-01-08T21:36:57.112Z,4.27
2019-01-08T21:39:26.356Z,3.90
2019-01-08T21:41:55.512Z,3.10
2019-01-08T21:44:25.127Z,2.97
2019-01-08T21:46:54.407Z,4.87
2019-01-08T21:49:23.602Z,4.90
2019-01-08T21:51:52.749Z,3.63
2019-01-08T21:54:21.996Z,3.10
2019-01-08T21:56:51.216Z,3.53
2019-01-08T21:59:20.454Z,2.93
2019-01-08T22:01:49.723Z,3.53
2019-01-08T22:04:18.975Z,3.97
2019-01-08T22:06:48.259Z,3.07
2019-01-08T22:09:17.419Z,3.80
2019-01-08T22:11:46.584Z,3.70
2019-01-08T22:14:16.090Z,3.43
2019-01-08T22:16:45.734Z,3.77
2019-01-08T22:19:15.040Z,3.00
2019-01-08T22:21:44.222Z,4.37
2019-01-08T22:24:13.505Z,3.17
2019-01-08T22:26:42.635Z,3.17
2019-01-08T22:29:11.786Z,2.90
2019-01-08T22:31:41.080Z,3.43
2019-01-08T22:34:10.233Z,3.63
2019-01-08T22:36:39.385Z,3.23
2019-01-08T22:39:08.585Z,3.20
2019-01-08T22:41:37.878Z,4.07
2019-01-08T22:44:07.153Z,3.43
2019-01-08T22:46:36.604Z,3.17
2019-01-08T22:49:06.295Z,2.87
2019-01-08T22:51:35.435Z,2.07
2019-01-08T22:54:05.164Z,3.10
2019-01-08T22:56:34.346Z,3.43
2019-01-08T22:59:03.517Z,2.90
2019-01-08T23:01:39.038Z,2.90
2019-01-08T23:04:09.839Z,4.10
2019-01-08T23:06:39.321Z,2.40
2019-01-08T23:09:08.830Z,2.90
2019-01-08T23:11:38.370Z,2.50
2019-01-08T23:14:07.555Z,3.37
2019-01-08T23:16:36.705Z,2.80
2019-01-08T23:19:05.981Z,2.63
2019-01-08T23:21:36.413Z,3.30
2019-01-08T23:24:05.551Z,2.90
2019-01-08T23:26:34.684Z,2.90
2019-01-08T23:29:03.855Z,2.63
2019-01-08T23:31:33.110Z,2.93
2019-01-08T23:34:02.253Z,3.13
2019-01-08T23:36:32.826Z,2.93
2019-01-08T23:39:01.956Z,3.40
2019-01-08T23:41:31.132Z,3.70
2019-01-08T23:44:00.288Z,3.93
2019-01-08T23:46:29.444Z,4.40
2019-01-08T23:48:58.621Z,4.30
2019-01-08T23:51:27.798Z,3.30
2019-01-08T23:53:57.242Z,4.37
2019-01-08T23:56:26.411Z,3.90
2019-01-08T23:58:55.653Z,3.47
